createdAt,value
2022-10-05T00:01:19.735Z,13.53
2022-10-05T00:03:48.237Z,16.60
2022-10-05T00:06:16.580Z,15.63
2022-10-05T00:08:45.161Z,15.27
2022-10-05T00:11:15.623Z,13.40
2022-10-05T00:13:44.224Z,16.37
2022-10-05T00:16:12.663Z,13.90
2022-10-05T00:18:42.261Z,14.03
2022-10-05T00:21:30.764Z,11.87
2022-10-05T00:24:01.833Z,15.43
2022-10-05T00:26:34.501Z,15.10
2022-10-05T00:29:07.824Z,15.43
2022-10-05T00:31:37.343Z,12.07
2022-10-05T00:34:05.745Z,13.30
2022-10-05T00:36:34.365Z,14.37
2022-10-05T00:39:03.178Z,14.60
2022-10-05T00:41:43.590Z,13.10
2022-10-05T00:44:46.234Z,12.40
2022-10-05T00:47:33.411Z,14.33
2022-10-05T00:50:07.861Z,12.40
2022-10-05T00:53:01.757Z,12.87
2022-10-05T00:55:51.330Z,13.20
2022-10-05T00:58:53.845Z,13.03
2022-10-05T01:01:33.961Z,13.37
2022-10-05T01:04:17.058Z,11.70
2022-10-05T01:07:12.893Z,13.10
2022-10-05T01:10:01.309Z,14.00
2022-10-05T01:12:57.114Z,13.10
2022-10-05T01:15:38.921Z,11.87
2022-10-05T01:18:19.489Z,11.40
2022-10-05T01:20:51.083Z,13.73
2022-10-05T01:23:55.801Z,12.00
2022-10-05T01:26:42.905Z,13.07
2022-10-05T01:29:17.465Z,11.77
2022-10-05T01:32:03.361Z,11.93
2022-10-05T01:34:39.292Z,11.37
2022-10-05T01:37:23.500Z,12.27
2022-10-05T01:40:23.010Z,12.10
2022-10-05T01:43:05.042Z,11.83
2022-10-05T01:45:44.131Z,11.70
2022-10-05T01:48:36.221Z,11.63
2022-10-05T01:51:29.120Z,11.70
2022-10-05T01:54:09.809Z,11.40
2022-10-05T01:56:43.082Z,11.73
2022-10-05T01:59:33.163Z,10.40
2022-10-05T02:02:18.638Z,11.43
2022-10-05T02:05:01.972Z,16.70
2022-10-05T02:08:00.495Z,25.20
2022-10-05T02:10:39.607Z,16.57
2022-10-05T02:13:15.767Z,12.27
2022-10-05T02:15:49.851Z,12.03
2022-10-05T02:18:23.050Z,11.43
2022-10-05T02:20:54.037Z,11.33
2022-10-05T02:23:33.731Z,11.70
2022-10-05T02:26:03.325Z,11.43
2022-10-05T02:28:47.423Z,11.77
2022-10-05T02:31:46.649Z,11.50
2022-10-05T02:34:42.454Z,11.60
2022-10-05T02:37:38.532Z,12.87
2022-10-05T02:40:17.360Z,10.97
2022-10-05T02:43:04.237Z,11.90
2022-10-05T02:45:54.696Z,11.40
2022-10-05T02:48:54.979Z,13.13
2022-10-05T02:51:33.972Z,14.03
2022-10-05T02:54:19.085Z,11.83
2022-10-05T02:57:02.293Z,11.80
2022-10-05T02:59:55.056Z,12.20
2022-10-05T03:02:47.045Z,13.80
2022-10-05T03:05:40.029Z,12.90
2022-10-05T03:08:38.646Z,12.27
2022-10-05T03:11:21.941Z,14.50
2022-10-05T03:14:02.581Z,15.63
2022-10-05T03:16:35.179Z,15.10
2022-10-05T03:19:12.823Z,15.17
2022-10-05T03:22:07.099Z,16.03
2022-10-05T03:25:04.733Z,15.10
2022-10-05T03:28:00.978Z,19.43
2022-10-05T03:30:40.767Z,18.73
2022-10-05T03:33:27.307Z,17.30
2022-10-05T03:36:26.409Z,15.40
2022-10-05T03:39:11.742Z,17.07
2022-10-05T03:41:40.395Z,16.63
2022-10-05T03:44:11.597Z,15.90
2022-10-05T03:46:54.838Z,14.07
2022-10-05T03:49:32.533Z,16.73
2022-10-05T03:52:26.195Z,16.80
2022-10-05T03:55:13.040Z,15.50
2022-10-05T03:57:44.312Z,14.50
2022-10-05T04:00:23.993Z,15.83
2022-10-05T04:03:13.854Z,14.60
2022-10-05T04:06:03.470Z,13.30
2022-10-05T04:08:47.763Z,17.93
2022-10-05T04:11:27.598Z,18.20
2022-10-05T04:14:23.438Z,16.17
2022-10-05T04:17:04.634Z,14.67
2022-10-05T04:19:48.772Z,14.27
2022-10-05T04:22:30.864Z,13.90
2022-10-05T04:25:44.616Z,15.60
2022-10-05T04:28:22.293Z,16.07
2022-10-05T04:30:54.268Z,16.90
2022-10-05T04:33:23.758Z,15.70
2022-10-05T04:36:07.510Z,17.00
2022-10-05T04:39:00.762Z,14.73
2022-10-05T04:41:32.325Z,18.60
2022-10-05T04:44:33.653Z,17.47
2022-10-05T04:47:36.354Z,20.03
2022-10-05T04:50:23.391Z,19.63
2022-10-05T04:53:10.237Z,19.43
2022-10-05T04:55:44.635Z,17.90
2022-10-05T04:58:42.547Z,18.77
2022-10-05T05:01:32.656Z,17.80
2022-10-05T05:04:19.363Z,19.27
2022-10-05T05:06:53.798Z,16.60
2022-10-05T05:09:24.989Z,18.70
2022-10-05T05:12:04.526Z,19.60
2022-10-05T05:15:27.007Z,19.60
2022-10-05T05:18:12.250Z,17.27
2022-10-05T05:20:53.037Z,18.10
2022-10-05T05:23:27.315Z,17.57
2022-10-05T05:26:04.345Z,18.50
2022-10-05T05:28:59.647Z,16.70
2022-10-05T05:31:31.003Z,16.83
2022-10-05T05:34:27.165Z,16.63
2022-10-05T05:37:30.332Z,16.43
2022-10-05T05:40:22.600Z,16.20
2022-10-05T05:42:59.868Z,15.67
2022-10-05T05:45:42.818Z,15.07
2022-10-05T05:48:41.478Z,16.80
2022-10-05T05:51:16.545Z,15.23
2022-10-05T05:54:07.957Z,15.87
2022-10-05T05:56:41.308Z,15.90
2022-10-05T05:59:25.718Z,18.53
2022-10-05T06:02:06.528Z,17.30
2022-10-05T06:04:38.710Z,15.83
2022-10-05T06:07:08.170Z,17.83
2022-10-05T06:09:45.698Z,16.60
2022-10-05T06:12:19.385Z,16.20
2022-10-05T06:15:06.178Z,17.23
2022-10-05T06:17:46.603Z,18.73
2022-10-05T06:20:43.186Z,18.90
2022-10-05T06:23:45.173Z,17.17
2022-10-05T06:26:22.615Z,16.10
2022-10-05T06:28:57.684Z,20.03
2022-10-05T06:31:41.116Z,16.97
2022-10-05T06:34:37.714Z,15.60
2022-10-05T06:37:19.048Z,17.47
2022-10-05T06:39:50.378Z,14.60
2022-10-05T06:42:57.630Z,18.23
2022-10-05T06:46:00.123Z,17.47
2022-10-05T06:48:41.316Z,17.60
2022-10-05T06:51:41.821Z,18.83
2022-10-05T06:54:21.099Z,20.30
2022-10-05T06:57:07.330Z,17.30
2022-10-05T07:00:13.935Z,17.47
2022-10-05T07:03:03.791Z,18.50
2022-10-05T07:05:50.730Z,17.53
2022-10-05T07:08:37.296Z,21.00
2022-10-05T07:11:17.634Z,21.50
2022-10-05T07:13:52.259Z,20.03
2022-10-05T07:16:48.850Z,21.20
2022-10-05T07:19:23.110Z,21.00
2022-10-05T07:22:20.313Z,20.23
2022-10-05T07:25:14.384Z,18.33
2022-10-05T07:27:54.166Z,22.80
2022-10-05T07:30:23.323Z,23.70
2022-10-05T07:33:00.549Z,18.40
2022-10-05T07:35:56.217Z,20.70
2022-10-05T07:38:49.065Z,21.70
2022-10-05T07:41:28.089Z,21.20
2022-10-05T07:44:03.423Z,20.80
2022-10-05T07:46:57.562Z,22.00
2022-10-05T07:49:59.655Z,23.07
2022-10-05T07:52:34.682Z,24.97
2022-10-05T07:55:20.560Z,23.00
2022-10-05T07:58:01.250Z,20.43
2022-10-05T08:01:01.442Z,24.30
2022-10-05T08:03:41.316Z,24.40
2022-10-05T08:06:15.907Z,25.83
2022-10-05T08:08:58.306Z,28.03
2022-10-05T08:11:36.533Z,23.47
2022-10-05T08:14:17.886Z,25.90
2022-10-05T08:16:49.260Z,29.40
2022-10-05T08:20:00.323Z,29.53
2022-10-05T08:22:42.594Z,26.17
2022-10-05T08:25:36.793Z,29.67
2022-10-05T08:28:23.585Z,30.33
2022-10-05T08:31:19.717Z,28.77
2022-10-05T08:34:00.909Z,29.07
2022-10-05T08:36:51.632Z,29.60
2022-10-05T08:39:25.877Z,29.90
2022-10-05T08:42:37.265Z,27.93
2022-10-05T08:45:38.626Z,25.17
2022-10-05T08:48:45.881Z,30.20
2022-10-05T08:51:51.609Z,24.53
2022-10-05T08:54:29.433Z,25.67
2022-10-05T08:57:33.919Z,25.73
2022-10-05T09:00:05.121Z,26.33
2022-10-05T09:03:00.816Z,25.27
2022-10-05T09:05:58.547Z,29.70
2022-10-05T09:08:48.582Z,29.77
2022-10-05T09:11:42.818Z,29.97
2022-10-05T09:15:13.666Z,25.33
2022-10-05T09:18:15.224Z,21.90
2022-10-05T09:20:59.132Z,29.00
2022-10-05T09:23:50.663Z,25.83
2022-10-05T09:26:31.346Z,24.17
2022-10-05T09:29:18.043Z,25.80
2022-10-05T09:32:17.272Z,22.27
2022-10-05T09:35:16.473Z,24.53
2022-10-05T09:38:32.613Z,26.07
2022-10-05T09:41:09.871Z,24.20
2022-10-05T09:44:05.613Z,24.37
2022-10-05T09:46:52.259Z,27.63
2022-10-05T09:49:53.620Z,27.43
2022-10-05T09:53:05.757Z,25.27
2022-10-05T09:55:49.554Z,27.80
2022-10-05T09:58:29.221Z,24.53
2022-10-05T10:01:33.065Z,22.03
2022-10-05T10:04:25.594Z,22.60
2022-10-05T10:07:16.680Z,22.07
2022-10-05T10:09:58.876Z,20.83
2022-10-05T10:12:58.085Z,21.90
2022-10-05T10:15:50.423Z,27.33
2022-10-05T10:18:21.833Z,23.03
2022-10-05T10:21:20.897Z,25.37
2022-10-05T10:24:01.669Z,27.80
2022-10-05T10:26:48.601Z,28.70
2022-10-05T10:29:33.713Z,26.10
2022-10-05T10:32:42.879Z,29.37
2022-10-05T10:35:37.047Z,26.73
2022-10-05T10:38:42.533Z,26.87
2022-10-05T10:42:11.717Z,26.53
2022-10-05T10:45:13.372Z,28.50
2022-10-05T10:48:16.911Z,26.17
2022-10-05T10:51:07.729Z,24.30
2022-10-05T10:54:04.386Z,24.43
2022-10-05T10:56:49.085Z,28.00
2022-10-05T10:59:51.254Z,28.30
2022-10-05T11:02:55.082Z,25.27
2022-10-05T11:05:58.920Z,26.43
2022-10-05T11:08:55.776Z,24.30
2022-10-05T11:11:40.177Z,26.10
2022-10-05T11:14:34.735Z,26.00
2022-10-05T11:17:21.373Z,24.27
2022-10-05T11:20:10.780Z,26.47
2022-10-05T11:22:42.130Z,31.50
2022-10-05T11:25:10.425Z,24.20
2022-10-05T11:28:15.046Z,25.60
2022-10-05T11:31:04.830Z,24.00
2022-10-05T11:34:00.657Z,25.90
2022-10-05T11:36:41.169Z,28.10
2022-10-05T11:39:34.316Z,27.47
2022-10-05T11:42:32.111Z,29.07
2022-10-05T11:45:19.990Z,29.43
2022-10-05T11:48:12.278Z,25.57
2022-10-05T11:51:06.010Z,27.60
2022-10-05T11:54:13.212Z,31.33
2022-10-05T11:56:50.748Z,26.53
2022-10-05T11:59:27.353Z,24.40
2022-10-05T12:02:14.953Z,28.70
2022-10-05T12:04:52.070Z,27.23
2022-10-05T12:07:37.078Z,28.90
2022-10-05T12:10:26.013Z,28.07
2022-10-05T12:13:12.867Z,28.80
2022-10-05T12:16:00.030Z,27.70
2022-10-05T12:18:31.973Z,26.60
2022-10-05T12:21:18.977Z,26.37
2022-10-05T12:23:55.640Z,27.53
2022-10-05T12:26:36.404Z,24.90
2022-10-05T12:29:04.726Z,31.03
2022-10-05T12:31:50.801Z,26.73
2022-10-05T12:34:41.264Z,25.20
2022-10-05T12:37:30.899Z,22.80
2022-10-05T12:40:20.649Z,23.40
2022-10-05T12:43:05.490Z,23.47
2022-10-05T12:45:49.721Z,22.60
2022-10-05T12:48:38.832Z,24.33
2022-10-05T12:51:24.632Z,21.83
2022-10-05T12:54:03.948Z,26.30
2022-10-05T12:56:41.521Z,23.23
2022-10-05T12:59:34.214Z,27.43
2022-10-05T13:02:12.434Z,24.40
2022-10-05T13:05:09.460Z,28.37
2022-10-05T13:08:18.837Z,25.67
2022-10-05T13:11:02.318Z,28.17
2022-10-05T13:13:52.420Z,27.90
2022-10-05T13:16:29.899Z,24.27
2022-10-05T13:19:17.023Z,23.20
2022-10-05T13:21:48.389Z,28.30
2022-10-05T13:24:46.700Z,24.40
2022-10-05T13:27:30.245Z,26.70
2022-10-05T13:30:13.461Z,25.10
2022-10-05T13:32:49.054Z,23.70
2022-10-05T13:35:51.149Z,23.27
2022-10-05T13:38:46.089Z,27.30
2022-10-05T13:41:39.477Z,24.30
2022-10-05T13:44:26.193Z,26.20
2022-10-05T13:47:07.887Z,23.90
2022-10-05T13:50:20.919Z,23.87
2022-10-05T13:53:07.811Z,24.33
2022-10-05T13:55:43.668Z,25.40
2022-10-05T13:58:36.541Z,23.43
2022-10-05T14:01:28.992Z,24.33
2022-10-05T14:04:06.562Z,24.37
2022-10-05T14:06:38.231Z,28.13
2022-10-05T14:09:11.797Z,29.63
2022-10-05T14:11:55.399Z,23.43
2022-10-05T14:14:29.242Z,24.23
2022-10-05T14:17:06.286Z,24.30
2022-10-05T14:19:49.706Z,26.97
2022-10-05T14:22:25.577Z,30.07
2022-10-05T14:24:59.538Z,26.73
2022-10-05T14:27:30.508Z,24.50
2022-10-05T14:30:29.705Z,29.70
2022-10-05T14:33:03.834Z,26.50
2022-10-05T14:35:52.606Z,27.27
2022-10-05T14:38:26.541Z,29.17
2022-10-05T14:41:06.628Z,25.97
2022-10-05T14:43:36.172Z,26.80
2022-10-05T14:46:23.277Z,34.30
2022-10-05T14:49:25.182Z,26.77
2022-10-05T14:51:55.814Z,33.13
2022-10-05T14:54:54.604Z,29.87
2022-10-05T14:57:44.481Z,32.10
2022-10-05T15:00:13.865Z,31.27
2022-10-05T15:03:00.318Z,32.90
2022-10-05T15:05:38.362Z,28.10
2022-10-05T15:08:25.189Z,25.60
2022-10-05T15:11:07.194Z,27.53
2022-10-05T15:13:42.284Z,27.13
2022-10-05T15:16:22.510Z,23.23
2022-10-05T15:19:03.313Z,22.87
2022-10-05T15:22:04.193Z,25.73
2022-10-05T15:24:52.640Z,22.63
2022-10-05T15:27:39.620Z,24.17
2022-10-05T15:30:16.208Z,21.90
2022-10-05T15:32:48.815Z,24.03
2022-10-05T15:35:29.579Z,22.57
2022-10-05T15:38:30.761Z,20.10
2022-10-05T15:41:15.730Z,20.67
2022-10-05T15:43:53.194Z,24.63
2022-10-05T15:46:41.046Z,21.07
2022-10-05T15:49:18.372Z,19.07
2022-10-05T15:51:56.370Z,20.17
2022-10-05T15:54:54.218Z,20.60
2022-10-05T15:57:40.926Z,18.70
2022-10-05T16:00:15.194Z,21.43
2022-10-05T16:02:49.300Z,22.20
2022-10-05T16:05:20.860Z,18.20
2022-10-05T16:08:12.688Z,15.53
2022-10-05T16:10:44.921Z,18.57
2022-10-05T16:13:23.491Z,16.30
2022-10-05T16:16:01.545Z,17.93
2022-10-05T16:18:47.930Z,17.43
2022-10-05T16:21:30.357Z,15.90
2022-10-05T16:24:13.113Z,19.10
2022-10-05T16:27:14.528Z,18.10
2022-10-05T16:30:05.051Z,15.57
2022-10-05T16:33:02.887Z,17.93
2022-10-05T16:35:47.828Z,15.33
2022-10-05T16:38:53.679Z,16.80
2022-10-05T16:42:00.586Z,14.00
2022-10-05T16:45:07.528Z,16.80
2022-10-05T16:48:17.401Z,14.13
2022-10-05T16:51:09.757Z,15.07
2022-10-05T16:54:00.477Z,17.73
2022-10-05T16:57:08.568Z,13.93
2022-10-05T16:59:40.426Z,14.77
2022-10-05T17:02:30.852Z,15.40
2022-10-05T17:05:02.358Z,13.20
2022-10-05T17:07:54.049Z,15.37
2022-10-05T17:10:56.926Z,16.30
2022-10-05T17:13:40.472Z,15.30
2022-10-05T17:16:11.808Z,14.67
2022-10-05T17:18:40.182Z,15.63
2022-10-05T17:21:29.201Z,16.07
2022-10-05T17:24:38.873Z,12.13
2022-10-05T17:27:48.735Z,14.03
2022-10-05T17:30:25.254Z,11.43
2022-10-05T17:33:05.341Z,13.83
2022-10-05T17:35:52.668Z,12.27
2022-10-05T17:38:39.196Z,10.73
2022-10-05T17:41:13.828Z,10.77
2022-10-05T17:44:02.770Z,10.37
2022-10-05T17:46:54.865Z,10.60
2022-10-05T17:49:41.773Z,9.00
2022-10-05T17:52:47.357Z,10.80
2022-10-05T17:55:39.284Z,8.90
2022-10-05T17:58:29.077Z,10.27
2022-10-05T18:01:01.588Z,8.50
2022-10-05T18:03:41.659Z,9.40
2022-10-05T18:06:35.481Z,8.83
2022-10-05T18:09:21.419Z,10.43
2022-10-05T18:12:17.504Z,8.90
2022-10-05T18:15:08.907Z,8.23
2022-10-05T18:18:01.757Z,8.40
2022-10-05T18:20:33.378Z,7.67
2022-10-05T18:23:07.027Z,7.10
2022-10-05T18:26:14.606Z,7.23
2022-10-05T18:28:43.082Z,6.70
2022-10-05T18:31:18.419Z,6.90
2022-10-05T18:34:05.321Z,7.10
2022-10-05T18:36:45.250Z,7.40
2022-10-05T18:39:32.301Z,6.60
2022-10-05T18:42:07.902Z,6.57
2022-10-05T18:44:51.230Z,7.53
2022-10-05T18:47:34.763Z,7.50
2022-10-05T18:50:22.549Z,8.10
2022-10-05T18:53:28.613Z,7.03
2022-10-05T18:56:25.480Z,8.30
2022-10-05T18:59:24.979Z,8.47
2022-10-05T19:02:35.904Z,9.80
2022-10-05T19:05:46.424Z,8.30
2022-10-05T19:08:28.578Z,8.50
2022-10-05T19:11:01.638Z,8.23
2022-10-05T19:13:30.176Z,7.50
2022-10-05T19:16:04.753Z,8.67
2022-10-05T19:18:42.495Z,7.27
2022-10-05T19:21:19.696Z,7.90
2022-10-05T19:23:57.309Z,7.20
2022-10-05T19:26:52.973Z,7.70
2022-10-05T19:29:53.912Z,7.77
2022-10-05T19:32:50.144Z,8.20
2022-10-05T19:35:21.680Z,7.17
2022-10-05T19:38:08.017Z,7.70
2022-10-05T19:41:13.540Z,8.27
2022-10-05T19:44:00.087Z,7.60
2022-10-05T19:46:55.072Z,6.40
2022-10-05T19:49:44.508Z,6.43
2022-10-05T19:52:22.006Z,7.37
2022-10-05T19:55:23.156Z,7.17
2022-10-05T19:58:03.002Z,6.57
2022-10-05T20:00:34.061Z,6.20
2022-10-05T20:03:17.002Z,6.87
2022-10-05T20:05:45.989Z,8.70
2022-10-05T20:08:22.077Z,9.10
2022-10-05T20:11:15.437Z,7.97
2022-10-05T20:14:04.735Z,9.30
2022-10-05T20:16:53.917Z,7.10
2022-10-05T20:19:52.693Z,6.97
2022-10-05T20:22:38.841Z,8.20
2022-10-05T20:25:29.671Z,7.30
2022-10-05T20:27:58.911Z,7.47
2022-10-05T20:30:30.030Z,7.63
2022-10-05T20:33:05.423Z,7.30
2022-10-05T20:35:33.899Z,8.30
2022-10-05T20:38:02.594Z,7.33
2022-10-05T20:40:31.723Z,6.70
2022-10-05T20:43:00.421Z,7.40
2022-10-05T20:45:29.200Z,6.97
2022-10-05T20:47:57.591Z,8.20
2022-10-05T20:50:26.022Z,9.00
2022-10-05T20:52:54.398Z,8.07
2022-10-05T20:55:22.775Z,8.83
2022-10-05T20:57:51.211Z,7.67
2022-10-05T21:00:19.625Z,7.80
2022-10-05T21:02:47.972Z,7.93
2022-10-05T21:05:19.144Z,7.93
2022-10-05T21:07:47.654Z,8.83
2022-10-05T21:10:16.157Z,8.00
2022-10-05T21:12:44.603Z,7.70
2022-10-05T21:15:13.378Z,10.40
2022-10-05T21:17:41.788Z,8.63
2022-10-05T21:20:12.015Z,9.73
2022-10-05T21:22:40.533Z,7.20
2022-10-05T21:25:09.775Z,9.07
2022-10-05T21:27:38.188Z,9.37
2022-10-05T21:30:07.030Z,8.30
2022-10-05T21:32:36.867Z,9.77
2022-10-05T21:35:07.297Z,10.17
2022-10-05T21:37:35.916Z,8.80
2022-10-05T21:40:04.446Z,10.20
2022-10-05T21:42:33.064Z,9.90
2022-10-05T21:45:01.446Z,9.70
2022-10-05T21:47:29.941Z,10.43
2022-10-05T21:49:58.447Z,10.80
2022-10-05T21:52:27.046Z,10.57
2022-10-05T21:54:55.484Z,9.83
2022-10-05T21:57:24.093Z,11.97
2022-10-05T21:59:52.481Z,10.80
2022-10-05T22:02:20.921Z,11.97
2022-10-05T22:04:49.362Z,11.67
2022-10-05T22:07:20.099Z,10.97
2022-10-05T22:09:52.536Z,10.80
2022-10-05T22:12:20.983Z,10.67
2022-10-05T22:14:49.522Z,10.17
2022-10-05T22:17:28.201Z,9.90
2022-10-05T22:19:57.940Z,11.10
2022-10-05T22:22:27.570Z,12.17
2022-10-05T22:24:56.689Z,11.70
2022-10-05T22:27:28.608Z,11.80
2022-10-05T22:29:59.088Z,11.67
2022-10-05T22:32:27.776Z,10.70
2022-10-05T22:34:56.161Z,11.87
2022-10-05T23:18:56.777Z,13.60
2022-10-05T23:21:28.150Z,14.13
2022-10-05T23:23:56.566Z,12.37
2022-10-05T23:26:26.536Z,14.83
2022-10-05T23:28:55.180Z,12.60
2022-10-05T23:31:26.414Z,13.07
2022-10-05T23:33:55.085Z,13.83
2022-10-05T23:36:28.783Z,13.90
2022-10-05T23:38:57.196Z,13.10
2022-10-05T23:41:26.254Z,13.13
2022-10-05T23:43:57.749Z,12.90
2022-10-05T23:46:26.110Z,12.57
2022-10-05T23:48:54.462Z,11.50
2022-10-05T23:51:22.873Z,13.80
2022-10-05T23:53:51.217Z,12.53
2022-10-05T23:56:19.570Z,11.70
2022-10-05T23:58:48.013Z,12.90
